Time;durP1;ratioP1;P1;durP2;ratioP2;P2;SDS_P1;SDS_P2;PMS_P1;PMS_P2;Temp;Humidity;BMP_temperature;BMP_pressure;BME280_temperature;BME280_humidity;BME280_pressure;Samples;Min_cycle;Max_cycle;Signal;HPM_P1;HPM_P2
2021/05/22 00:01:26;;;;;;;5.63;1.67;;;12.40;71.70;;;;;;3572840;40;20021;-67
2021/05/22 00:03:54;;;;;;;4.82;1.27;;;12.40;71.80;;;;;;3576659;40;20040;-67
2021/05/22 00:06:20;;;;;;;3.33;1.60;;;12.40;70.90;;;;;;3575986;40;20705;-67
2021/05/22 00:08:45;;;;;;;6.32;2.10;;;12.40;69.90;;;;;;3575902;40;20036;-67
2021/05/22 00:11:11;;;;;;;5.20;1.42;;;12.40;70.80;;;;;;3581059;40;20076;-67
2021/05/22 00:13:37;;;;;;;6.18;1.60;;;12.30;70.10;;;;;;3580766;40;20029;-67
2021/05/22 00:16:03;;;;;;;6.18;1.90;;;12.30;69.60;;;;;;3577372;40;20037;-67
2021/05/22 00:18:29;;;;;;;3.78;1.77;;;12.20;69.80;;;;;;3577007;40;20100;-67
2021/05/22 00:20:54;;;;;;;4.97;1.70;;;12.20;70.00;;;;;;3574830;40;20064;-67
2021/05/22 00:23:20;;;;;;;3.72;1.42;;;12.20;70.30;;;;;;3572452;40;20069;-67
2021/05/22 00:25:46;;;;;;;10.50;1.88;;;12.20;70.40;;;;;;3573091;40;20503;-67
2021/05/22 00:28:12;;;;;;;6.28;1.55;;;12.20;70.40;;;;;;3575316;40;20040;-67
2021/05/22 00:30:37;;;;;;;5.22;1.55;;;12.20;69.30;;;;;;3576195;40;20039;-67
2021/05/22 00:33:03;;;;;;;5.32;1.40;;;12.10;69.70;;;;;;3579114;40;20037;-67
2021/05/22 00:35:29;;;;;;;5.65;1.67;;;12.10;69.00;;;;;;3578709;40;20465;-67
2021/05/22 00:37:54;;;;;;;10.60;2.00;;;12.00;70.80;;;;;;3580195;40;20051;-67
2021/05/22 00:40:20;;;;;;;4.05;1.60;;;12.00;71.60;;;;;;3577912;40;20032;-67
2021/05/22 00:42:46;;;;;;;3.65;1.50;;;12.00;71.00;;;;;;3576517;40;20032;-67
2021/05/22 00:45:18;;;;;;;5.15;1.90;;;11.90;70.60;;;;;;3574665;40;20021;-67
2021/05/22 00:47:53;;;;;;;5.53;1.60;;;11.90;71.70;;;;;;3570561;40;20099;-67
2021/05/22 00:50:27;;;;;;;5.47;1.33;;;11.80;71.80;;;;;;3572189;40;20022;-67
2021/05/22 00:52:53;;;;;;;6.25;1.60;;;11.80;71.20;;;;;;3572596;40;20151;-67
2021/05/22 00:55:20;;;;;;;5.03;1.42;;;11.80;71.10;;;;;;3575914;40;20036;-67
2021/05/22 00:57:46;;;;;;;10.07;1.73;;;11.80;71.00;;;;;;3577294;40;20063;-67
2021/05/22 01:00:18;;;;;;;6.00;1.58;;;11.80;70.60;;;;;;3579860;40;20612;-67
2021/05/22 01:02:44;;;;;;;4.40;1.45;;;11.80;70.80;;;;;;3580697;40;20032;-67
2021/05/22 01:05:10;;;;;;;2.22;1.30;;;11.90;70.40;;;;;;3570522;40;20033;-67
2021/05/22 01:07:37;;;;;;;5.65;1.55;;;11.90;71.00;;;;;;3575427;40;20029;-67
2021/05/22 01:10:05;;;;;;;7.13;1.60;;;11.80;70.80;;;;;;3575825;40;20024;-67
2021/05/22 01:12:35;;;;;;;4.88;1.67;;;11.80;70.70;;;;;;3571206;40;20037;-67
2021/05/22 01:15:07;;;;;;;2.72;1.50;;;11.80;70.60;;;;;;3571620;40;20025;-67
2021/05/22 01:17:35;;;;;;;4.63;1.50;;;11.90;71.10;;;;;;3577972;40;20032;-67
2021/05/22 01:20:04;;;;;;;2.88;1.70;;;11.90;71.40;;;;;;3574041;40;20029;-67
2021/05/22 01:22:41;;;;;;;4.25;1.77;;;11.90;71.40;;;;;;3576733;40;20021;-67
2021/05/22 01:25:28;;;;;;;6.15;1.70;;;11.90;70.20;;;;;;3571734;40;20036;-67
2021/05/22 01:27:54;;;;;;;6.60;1.85;;;12.00;70.40;;;;;;3569946;40;20492;-67
2021/05/22 01:30:20;;;;;;;6.20;1.58;;;12.00;69.80;;;;;;3572423;40;20041;-67
2021/05/22 01:32:46;;;;;;;5.18;1.50;;;12.00;68.80;;;;;;3574916;40;20529;-67
2021/05/22 01:35:14;;;;;;;4.32;1.45;;;12.00;69.40;;;;;;3576911;40;20394;-67
2021/05/22 01:37:40;;;;;;;5.30;1.30;;;12.00;69.50;;;;;;3578314;40;20092;-67
2021/05/22 01:40:07;;;;;;;3.63;1.50;;;12.10;69.80;;;;;;3578939;40;20122;-67
2021/05/22 01:42:34;;;;;;;4.72;1.40;;;12.10;69.70;;;;;;3578148;40;20040;-67
2021/05/22 01:45:03;;;;;;;6.22;1.40;;;12.00;70.20;;;;;;3576359;40;20060;-66
2021/05/22 01:47:31;;;;;;;5.45;1.20;;;12.00;70.00;;;;;;3572522;40;20402;-67
2021/05/22 01:49:57;;;;;;;3.75;1.40;;;12.00;70.20;;;;;;3571865;40;20036;-67
2021/05/22 01:52:23;;;;;;;4.60;1.40;;;12.00;70.20;;;;;;3580057;40;20335;-67
2021/05/22 01:54:50;;;;;;;7.55;1.35;;;12.00;70.20;;;;;;3576029;40;20391;-67
2021/05/22 01:57:16;;;;;;;5.07;1.42;;;12.10;69.40;;;;;;3575031;40;20021;-67
2021/05/22 01:59:42;;;;;;;3.47;1.50;;;12.10;70.10;;;;;;3574701;40;20299;-68
2021/05/22 02:02:08;;;;;;;5.38;1.60;;;12.10;70.00;;;;;;3571753;40;20033;-67
2021/05/22 02:04:39;;;;;;;4.70;1.48;;;12.20;70.20;;;;;;3572022;40;20663;-67
2021/05/22 02:07:05;;;;;;;6.60;1.63;;;12.20;70.70;;;;;;3574559;40;20076;-67
2021/05/22 02:09:33;;;;;;;5.57;1.10;;;12.30;70.40;;;;;;3575307;40;20051;-67
2021/05/22 02:12:00;;;;;;;2.08;1.25;;;12.40;70.20;;;;;;3573622;40;20032;-67
2021/05/22 02:14:33;;;;;;;5.38;1.27;;;12.30;70.90;;;;;;3572277;40;20033;-67
2021/05/22 02:17:02;;;;;;;5.40;1.15;;;12.30;71.60;;;;;;3571925;40;20025;-66
2021/05/22 02:19:30;;;;;;;3.22;1.30;;;12.30;70.80;;;;;;3571711;40;20064;-67
2021/05/22 02:22:02;;;;;;;4.47;1.40;;;12.30;71.60;;;;;;3572687;40;20037;-67
2021/05/22 02:24:28;;;;;;;2.97;1.55;;;12.30;71.00;;;;;;3574279;40;20116;-67
2021/05/22 02:26:57;;;;;;;3.60;1.40;;;12.40;71.20;;;;;;3575147;40;20033;-67
2021/05/22 02:29:24;;;;;;;5.63;1.15;;;12.40;69.90;;;;;;3577264;40;20085;-67
2021/05/22 02:31:51;;;;;;;3.70;1.30;;;12.50;70.30;;;;;;3576313;40;20104;-67
2021/05/22 02:34:25;;;;;;;4.47;1.60;;;12.50;71.50;;;;;;3575381;40;20122;-67
2021/05/22 02:36:54;;;;;;;4.70;1.40;;;12.50;71.10;;;;;;3576883;40;20048;-67
2021/05/22 02:39:20;;;;;;;3.10;1.65;;;12.50;70.80;;;;;;3575450;40;20044;-67
2021/05/22 02:41:49;;;;;;;6.38;1.38;;;12.50;70.60;;;;;;3580568;40;20129;-67
2021/05/22 02:44:17;;;;;;;3.53;1.17;;;12.50;70.30;;;;;;3577441;40;20126;-67
2021/05/22 02:46:47;;;;;;;4.22;1.40;;;12.50;70.80;;;;;;3573020;40;20734;-67
2021/05/22 02:49:17;;;;;;;1.35;1.05;;;12.50;70.10;;;;;;3573893;40;20096;-67
2021/05/22 02:51:45;;;;;;;1.60;1.00;;;12.60;70.30;;;;;;3573425;40;20041;-67
2021/05/22 02:54:11;;;;;;;4.47;1.50;;;12.60;70.70;;;;;;3572115;40;20029;-67
2021/05/22 02:56:37;;;;;;;2.38;1.45;;;12.60;71.20;;;;;;3573586;40;20110;-67
2021/05/22 02:59:04;;;;;;;2.78;1.38;;;12.60;71.10;;;;;;3575351;40;20037;-67
2021/05/22 03:01:31;;;;;;;5.75;1.48;;;12.60;71.50;;;;;;3575936;40;20045;-67
2021/05/22 03:03:59;;;;;;;2.90;1.08;;;12.60;72.40;;;;;;3573402;40;20013;-68
2021/05/22 03:06:25;;;;;;;3.08;1.45;;;12.60;71.60;;;;;;3579660;40;20029;-67
2021/05/22 03:08:51;;;;;;;6.07;1.40;;;12.60;72.00;;;;;;3574269;40;20276;-67
2021/05/22 03:11:19;;;;;;;2.30;1.15;;;12.70;72.40;;;;;;3574821;40;20512;-67
2021/05/22 03:13:45;;;;;;;2.30;1.33;;;12.70;72.70;;;;;;3576488;40;20109;-67
2021/05/22 03:16:12;;;;;;;4.45;1.27;;;12.70;72.60;;;;;;3574942;40;20025;-67
2021/05/22 03:18:38;;;;;;;4.85;1.50;;;12.70;72.20;;;;;;3577510;40;20031;-67
2021/05/22 03:21:04;;;;;;;4.03;1.40;;;12.70;71.90;;;;;;3581908;40;20347;-67
2021/05/22 03:23:30;;;;;;;3.75;1.20;;;12.70;72.30;;;;;;3576582;40;20074;-67
2021/05/22 03:25:56;;;;;;;5.10;1.40;;;12.70;72.60;;;;;;3577131;40;20217;-68
2021/05/22 03:28:22;;;;;;;5.63;1.77;;;12.70;72.40;;;;;;3574716;40;20061;-67
2021/05/22 03:30:48;;;;;;;2.72;1.05;;;12.70;71.90;;;;;;3573948;40;20040;-67
2021/05/22 03:33:13;;;;;;;3.40;1.17;;;12.70;72.30;;;;;;3577929;40;20073;-67
2021/05/22 03:35:39;;;;;;;3.60;1.50;;;12.70;72.30;;;;;;3573116;40;20037;-67
2021/05/22 03:38:05;;;;;;;1.67;1.38;;;12.80;72.20;;;;;;3576559;40;20142;-67
2021/05/22 03:40:31;;;;;;;2.13;1.23;;;12.90;72.10;;;;;;3576919;40;20845;-67
2021/05/22 03:42:56;;;;;;;4.68;1.30;;;12.90;72.00;;;;;;3576802;40;20036;-67
2021/05/22 03:45:22;;;;;;;3.15;1.10;;;13.00;71.80;;;;;;3573356;40;20033;-67
2021/05/22 03:47:48;;;;;;;4.55;1.20;;;13.00;73.20;;;;;;3578541;40;20041;-67
2021/05/22 03:50:14;;;;;;;3.63;1.25;;;13.10;73.20;;;;;;3576499;40;20130;-67
2021/05/22 03:52:40;;;;;;;3.28;1.20;;;13.10;72.50;;;;;;3576323;40;20300;-68
2021/05/22 03:55:07;;;;;;;2.67;1.50;;;13.10;72.50;;;;;;3576338;40;20048;-66
2021/05/22 03:57:33;;;;;;;1.58;1.13;;;13.10;72.60;;;;;;3573386;40;20025;-67
2021/05/22 03:59:59;;;;;;;3.20;1.35;;;13.20;72.50;;;;;;3575276;40;20309;-67
2021/05/22 04:02:25;;;;;;;3.17;1.30;;;13.30;72.50;;;;;;3575701;40;20029;-67
2021/05/22 04:04:51;;;;;;;2.85;1.30;;;13.40;72.10;;;;;;3575607;40;20042;-64
2021/05/22 04:07:16;;;;;;;1.98;1.00;;;13.40;71.80;;;;;;3575009;40;20410;-64
2021/05/22 04:09:42;;;;;;;2.58;1.17;;;13.50;71.90;;;;;;3572924;40;20041;-64
2021/05/22 04:12:08;;;;;;;4.63;1.33;;;13.50;71.70;;;;;;3574204;40;20345;-64
2021/05/22 04:14:33;;;;;;;1.85;1.05;;;13.60;72.00;;;;;;3575421;40;20754;-63
2021/05/22 04:16:59;;;;;;;1.85;0.98;;;13.60;71.70;;;;;;3577585;40;20403;-64
2021/05/22 04:19:25;;;;;;;4.50;1.13;;;13.60;72.00;;;;;;3576841;40;20107;-64
2021/05/22 04:21:50;;;;;;;2.72;1.30;;;13.70;72.10;;;;;;3581774;40;20315;-64
2021/05/22 04:24:17;;;;;;;1.85;1.17;;;13.80;71.70;;;;;;3579518;40;20031;-64
2021/05/22 04:26:44;;;;;;;2.22;1.10;;;13.80;71.00;;;;;;3575482;40;20161;-64
2021/05/22 04:29:09;;;;;;;4.60;1.20;;;13.90;71.00;;;;;;3575824;40;20025;-64
2021/05/22 04:31:35;;;;;;;2.78;1.33;;;13.90;71.20;;;;;;3574453;40;20395;-64
2021/05/22 04:34:01;;;;;;;1.80;1.08;;;14.00;71.20;;;;;;3574912;40;20032;-64
2021/05/22 04:36:26;;;;;;;2.17;1.30;;;14.00;71.20;;;;;;3580338;40;20044;-64
2021/05/22 04:38:52;;;;;;;1.35;1.10;;;14.10;71.00;;;;;;3577597;40;20033;-64
2021/05/22 04:41:18;;;;;;;6.15;1.40;;;14.10;71.00;;;;;;3575879;40;20646;-64
2021/05/22 04:43:44;;;;;;;1.60;1.10;;;14.20;70.80;;;;;;3574351;40;20025;-64
2021/05/22 04:46:10;;;;;;;1.73;1.27;;;14.30;70.70;;;;;;3572861;40;20306;-64
2021/05/22 04:48:36;;;;;;;2.33;1.23;;;14.30;70.80;;;;;;3572195;40;20177;-64
2021/05/22 04:51:01;;;;;;;4.60;1.35;;;14.40;70.50;;;;;;3573656;40;20036;-64
2021/05/22 04:53:27;;;;;;;4.20;1.15;;;14.40;70.50;;;;;;3576877;40;20048;-63
2021/05/22 04:55:53;;;;;;;2.38;1.20;;;14.40;70.80;;;;;;3578769;40;20043;-64
2021/05/22 04:58:19;;;;;;;3.53;1.40;;;14.40;71.00;;;;;;3580102;40;20033;-64
2021/05/22 05:00:45;;;;;;;0.98;0.90;;;14.40;70.50;;;;;;3574940;40;20087;-64
2021/05/22 05:03:11;;;;;;;2.40;1.50;;;14.30;71.70;;;;;;3576629;40;20510;-63
2021/05/22 05:05:36;;;;;;;2.22;1.13;;;14.40;71.00;;;;;;3576365;40;20029;-63
2021/05/22 05:08:02;;;;;;;2.88;1.15;;;14.50;70.30;;;;;;3576501;40;20055;-64
2021/05/22 05:10:28;;;;;;;4.32;1.17;;;14.50;70.10;;;;;;3572554;40;20473;-64
2021/05/22 05:12:54;;;;;;;4.97;1.20;;;14.40;70.00;;;;;;3571730;40;20040;-64
2021/05/22 05:15:20;;;;;;;1.98;1.35;;;14.30;70.80;;;;;;3574035;40;20079;-64
2021/05/22 05:17:46;;;;;;;2.17;1.13;;;14.30;72.30;;;;;;3575160;40;20036;-63
2021/05/22 05:20:12;;;;;;;4.32;1.38;;;14.10;74.10;;;;;;3574766;40;20077;-64
2021/05/22 05:22:38;;;;;;;2.65;1.20;;;13.90;74.80;;;;;;3573377;40;20134;-63
2021/05/22 05:25:06;;;;;;;2.28;1.08;;;13.80;76.00;;;;;;3570904;40;20501;-63
2021/05/22 05:27:31;;;;;;;3.65;1.30;;;13.70;77.20;;;;;;3574672;40;20040;-64
2021/05/22 05:29:57;;;;;;;4.78;1.25;;;13.60;77.70;;;;;;3574947;39;20029;-64
2021/05/22 05:32:23;;;;;;;2.47;1.15;;;13.60;78.40;;;;;;3575435;40;20068;-64
2021/05/22 05:34:48;;;;;;;3.17;1.48;;;13.60;77.90;;;;;;3577553;40;20028;-64
2021/05/22 05:37:14;;;;;;;3.38;1.42;;;13.60;77.90;;;;;;3570976;40;20045;-63
2021/05/22 05:39:40;;;;;;;3.72;1.20;;;13.60;78.60;;;;;;3576317;40;20063;-62
2021/05/22 05:42:06;;;;;;;3.35;1.10;;;13.70;78.80;;;;;;3564035;40;20319;-62
2021/05/22 05:44:32;;;;;;;1.98;1.00;;;13.80;78.90;;;;;;3574669;40;20621;-63
2021/05/22 05:46:58;;;;;;;2.60;1.20;;;13.80;79.40;;;;;;3571127;40;20041;-62
2021/05/22 05:49:28;;;;;;;2.47;1.45;;;13.90;79.70;;;;;;3577057;40;20044;-62
2021/05/22 05:51:56;;;;;;;3.05;1.52;;;14.10;79.40;;;;;;3578071;40;20068;-62
2021/05/22 05:54:21;;;;;;;3.58;1.20;;;14.20;79.30;;;;;;3573803;40;20033;-62
2021/05/22 05:56:47;;;;;;;3.72;1.40;;;14.40;78.50;;;;;;3575219;40;20526;-63
2021/05/22 05:59:13;;;;;;;1.95;1.20;;;14.50;77.70;;;;;;3575050;40;20033;-63
2021/05/22 06:01:38;;;;;;;4.53;1.48;;;14.60;77.40;;;;;;3570940;40;20128;-63
2021/05/22 06:04:05;;;;;;;4.10;1.40;;;14.70;77.50;;;;;;3573306;40;20110;-62
2021/05/22 06:06:31;;;;;;;3.95;1.48;;;14.90;76.90;;;;;;3576887;40;20068;-63
2021/05/22 06:08:57;;;;;;;2.83;1.25;;;15.00;76.00;;;;;;3576485;40;20100;-62
2021/05/22 06:11:25;;;;;;;3.95;1.63;;;15.00;75.50;;;;;;3578259;40;20391;-62
2021/05/22 06:13:51;;;;;;;5.07;1.55;;;15.20;75.10;;;;;;3576814;40;20037;-66
2021/05/22 06:16:25;;;;;;;2.75;1.45;;;15.20;74.90;;;;;;3574311;40;20393;-66
2021/05/22 06:18:53;;;;;;;4.85;2.13;;;15.30;74.20;;;;;;3579402;40;20090;-66
2021/05/22 06:21:19;;;;;;;3.85;1.77;;;15.30;74.30;;;;;;3576177;40;20130;-67
2021/05/22 06:23:45;;;;;;;2.42;1.20;;;15.30;74.80;;;;;;3575808;40;20381;-66
2021/05/22 06:26:10;;;;;;;4.30;2.90;;;15.40;74.30;;;;;;3577700;40;20021;-66
2021/05/22 06:28:36;;;;;;;3.75;1.23;;;15.50;74.10;;;;;;3581053;40;20032;-67
2021/05/22 06:31:04;;;;;;;3.13;1.52;;;15.60;72.50;;;;;;3575360;40;20639;-66
2021/05/22 06:33:30;;;;;;;4.43;1.45;;;15.70;72.40;;;;;;3574860;40;20060;-68
2021/05/22 06:35:56;;;;;;;9.52;4.18;;;15.70;72.80;;;;;;3573445;40;20025;-66
2021/05/22 06:38:22;;;;;;;2.13;1.25;;;15.70;72.10;;;;;;3573404;40;20033;-67
2021/05/22 06:40:48;;;;;;;4.07;1.63;;;15.80;72.00;;;;;;3574391;40;20063;-67
2021/05/22 06:43:14;;;;;;;2.50;1.30;;;15.90;71.90;;;;;;3578113;40;20033;-67
2021/05/22 06:45:42;;;;;;;6.63;2.17;;;15.90;69.50;;;;;;3575703;40;20117;-66
2021/05/22 06:48:09;;;;;;;3.10;2.15;;;15.80;69.70;;;;;;3577187;40;20044;-67
2021/05/22 06:50:35;;;;;;;3.17;1.33;;;15.80;71.10;;;;;;3579908;40;20401;-66
2021/05/22 06:53:01;;;;;;;1.40;1.00;;;15.90;70.90;;;;;;3578454;40;20062;-66
2021/05/22 06:55:27;;;;;;;1.77;0.88;;;15.90;68.60;;;;;;3577744;40;20508;-66
2021/05/22 06:57:53;;;;;;;2.42;1.00;;;15.90;68.80;;;;;;3575533;40;20041;-65
2021/05/22 07:00:20;;;;;;;4.88;1.50;;;15.80;68.40;;;;;;3575834;40;20029;-66
2021/05/22 07:02:46;;;;;;;3.65;1.17;;;15.90;67.50;;;;;;3574305;40;20060;-66
2021/05/22 07:05:13;;;;;;;3.90;0.93;;;15.90;67.40;;;;;;3572860;40;20049;-67
2021/05/22 07:07:39;;;;;;;1.98;0.85;;;16.00;67.40;;;;;;3578604;39;20029;-67
2021/05/22 07:10:06;;;;;;;4.07;1.33;;;15.90;66.20;;;;;;3576101;40;20077;-66
2021/05/22 07:12:32;;;;;;;2.20;1.00;;;15.90;65.90;;;;;;3575975;40;20028;-67
2021/05/22 07:14:58;;;;;;;2.65;1.10;;;16.00;65.40;;;;;;3581024;40;20036;-67
2021/05/22 07:17:24;;;;;;;1.33;1.20;;;16.00;66.40;;;;;;3579013;40;20029;-66
2021/05/22 07:19:49;;;;;;;4.25;2.35;;;16.10;66.00;;;;;;3576405;40;20029;-67
2021/05/22 07:22:15;;;;;;;1.58;0.70;;;16.20;64.10;;;;;;3576540;40;20029;-67
2021/05/22 07:24:41;;;;;;;3.80;1.10;;;16.30;63.70;;;;;;3577504;40;20080;-66
2021/05/22 07:27:07;;;;;;;4.65;1.10;;;16.50;63.60;;;;;;3579715;40;20033;-66
2021/05/22 07:29:33;;;;;;;5.70;3.10;;;16.30;61.00;;;;;;3575239;40;20040;-66
2021/05/22 07:31:59;;;;;;;1.92;1.15;;;16.20;62.60;;;;;;3575322;40;20036;-65
2021/05/22 07:34:25;;;;;;;2.97;0.90;;;16.10;61.20;;;;;;3578887;40;20029;-67
2021/05/22 07:36:52;;;;;;;3.40;1.25;;;15.90;61.40;;;;;;3576187;40;20017;-67
2021/05/22 07:39:17;;;;;;;2.78;1.65;;;15.90;62.30;;;;;;3574095;40;20391;-66
2021/05/22 07:41:45;;;;;;;4.55;1.90;;;15.80;62.50;;;;;;3571986;40;20065;-63
2021/05/22 07:44:11;;;;;;;8.77;4.45;;;15.90;62.00;;;;;;3571909;40;20029;-62
2021/05/22 07:46:37;;;;;;;3.63;0.90;;;16.00;62.10;;;;;;3584480;40;20047;-61
2021/05/22 07:49:03;;;;;;;7.93;2.88;;;15.90;59.90;;;;;;3575975;40;20399;-63
2021/05/22 07:51:29;;;;;;;8.82;3.67;;;15.90;61.00;;;;;;3576676;40;20048;-62
2021/05/22 07:53:55;;;;;;;5.63;2.70;;;16.00;61.40;;;;;;3570952;40;20069;-62
2021/05/22 07:56:21;;;;;;;8.73;2.55;;;16.10;60.00;;;;;;3571794;40;20326;-62
2021/05/22 07:58:46;;;;;;;7.63;2.10;;;16.00;60.60;;;;;;3576389;40;20040;-62
2021/05/22 08:01:12;;;;;;;4.00;2.45;;;16.00;59.80;;;;;;3574572;40;20069;-62
2021/05/22 08:03:38;;;;;;;6.35;1.77;;;15.90;58.90;;;;;;3578102;40;20056;-62
2021/05/22 08:06:04;;;;;;;4.63;1.10;;;15.90;60.40;;;;;;3578007;40;20025;-62
2021/05/22 08:08:30;;;;;;;5.00;2.17;;;15.80;60.20;;;;;;3578560;40;20025;-62
2021/05/22 08:10:56;;;;;;;3.30;1.00;;;15.80;60.50;;;;;;3574932;40;20118;-62
2021/05/22 08:13:25;;;;;;;6.18;1.63;;;15.90;60.10;;;;;;3575828;40;20073;-64
2021/05/22 08:15:51;;;;;;;2.53;1.20;;;16.00;59.10;;;;;;3571375;40;20037;-60
2021/05/22 08:18:17;;;;;;;4.38;1.23;;;16.20;59.20;;;;;;3572236;40;20065;-62
2021/05/22 08:20:42;;;;;;;3.33;1.08;;;16.50;60.10;;;;;;3572908;40;20032;-61
2021/05/22 08:23:08;;;;;;;2.15;0.88;;;16.60;58.70;;;;;;3577217;40;20025;-61
2021/05/22 08:25:34;;;;;;;3.22;1.15;;;16.80;58.00;;;;;;3574437;40;20024;-62
2021/05/22 08:28:00;;;;;;;5.50;1.50;;;16.80;57.10;;;;;;3576100;40;20028;-62
2021/05/22 08:30:25;;;;;;;6.07;1.00;;;16.90;56.50;;;;;;3576002;40;20036;-62
2021/05/22 08:32:51;;;;;;;1.85;0.80;;;17.00;55.30;;;;;;3577937;40;20047;-63
2021/05/22 08:35:17;;;;;;;3.38;0.80;;;17.00;56.00;;;;;;3572792;40;20701;-62
2021/05/22 08:37:43;;;;;;;2.45;0.75;;;17.20;55.20;;;;;;3575241;40;20036;-62
2021/05/22 08:40:10;;;;;;;4.50;1.00;;;17.30;55.20;;;;;;3577135;40;20089;-61
2021/05/22 08:42:36;;;;;;;4.07;1.70;;;17.50;54.40;;;;;;3572346;40;20033;-62
2021/05/22 08:45:13;;;;;;;2.42;0.90;;;17.90;54.00;;;;;;3577934;40;20040;-62
2021/05/22 08:47:40;;;;;;;2.47;1.02;;;18.30;53.20;;;;;;3574432;40;20025;-62
2021/05/22 08:50:09;;;;;;;4.60;0.98;;;18.40;51.60;;;;;;3573455;40;20029;-62
2021/05/22 08:52:35;;;;;;;7.25;0.93;;;18.40;50.00;;;;;;3575940;40;20134;-62
2021/05/22 08:55:00;;;;;;;3.63;1.10;;;18.60;51.20;;;;;;3574984;40;20021;-62
2021/05/22 08:57:26;;;;;;;2.50;0.80;;;18.60;51.30;;;;;;3572173;40;20280;-61
2021/05/22 08:59:52;;;;;;;5.40;1.05;;;18.50;50.90;;;;;;3573485;40;20036;-61
2021/05/22 09:02:21;;;;;;;3.38;1.08;;;18.40;50.60;;;;;;3575896;40;20374;-61
2021/05/22 09:05:11;;;;;;;5.93;1.27;;;18.20;50.40;;;;;;3566098;40;20298;-61
2021/05/22 09:07:42;;;;;;;3.75;0.80;;;17.90;51.10;;;;;;3572211;40;20044;-62
2021/05/22 09:10:19;;;;;;;5.82;0.82;;;17.60;50.20;;;;;;3574929;40;20802;-62
2021/05/22 09:12:48;;;;;;;7.07;1.00;;;17.40;51.40;;;;;;3573577;40;20295;-61
2021/05/22 09:15:25;;;;;;;4.20;1.00;;;17.40;51.90;;;;;;3576864;40;20037;-62
2021/05/22 09:17:55;;;;;;;2.53;0.70;;;17.50;51.40;;;;;;3577520;40;20072;-62
2021/05/22 09:20:36;;;;;;;4.70;1.10;;;17.70;50.40;;;;;;3579434;40;20399;-62
2021/05/22 09:23:07;;;;;;;4.22;0.88;;;17.90;51.70;;;;;;3576311;40;20032;-62
2021/05/22 09:25:36;;;;;;;4.07;0.80;;;18.30;50.30;;;;;;3579398;40;20033;-62
2021/05/22 09:28:04;;;;;;;4.63;1.23;;;18.50;49.30;;;;;;3575017;40;20013;-63
2021/05/22 09:30:30;;;;;;;1.90;0.70;;;18.40;49.00;;;;;;3576570;40;20112;-62
2021/05/22 09:32:56;;;;;;;4.05;0.90;;;18.20;49.30;;;;;;3578880;40;20041;-62
2021/05/22 09:35:23;;;;;;;1.15;0.73;;;18.10;48.50;;;;;;3580088;40;20033;-62
2021/05/22 09:37:58;;;;;;;1.80;0.75;;;18.10;49.80;;;;;;3579229;40;20109;-63
2021/05/22 09:40:33;;;;;;;3.28;0.70;;;18.20;48.90;;;;;;3575096;40;20403;-62
2021/05/22 09:43:01;;;;;;;4.07;1.48;;;18.20;49.30;;;;;;3574244;40;20442;-61
2021/05/22 09:45:45;;;;;;;5.18;1.00;;;18.30;49.10;;;;;;3572481;40;20045;-62
2021/05/22 09:48:11;;;;;;;7.13;1.15;;;18.50;47.80;;;;;;3580177;40;20122;-62
2021/05/22 09:50:50;;;;;;;2.78;0.88;;;18.60;46.80;;;;;;3574212;40;20036;-61
2021/05/22 09:53:39;;;;;;;2.35;0.80;;;18.40;47.00;;;;;;3576536;40;20037;-61
2021/05/22 09:56:19;;;;;;;3.83;0.90;;;18.30;47.40;;;;;;3572997;40;20044;-62
2021/05/22 09:58:58;;;;;;;2.25;1.00;;;18.00;57.30;;;;;;3571234;40;20061;-63
2021/05/22 10:01:31;;;;;;;4.43;1.00;;;17.50;60.80;;;;;;3572174;40;20474;-62
2021/05/22 10:04:20;;;;;;;2.28;0.90;;;17.10;63.10;;;;;;3571663;40;20033;-62
2021/05/22 10:06:46;;;;;;;3.58;0.98;;;17.00;67.50;;;;;;3574537;40;20046;-62
2021/05/22 10:09:13;;;;;;;7.47;1.20;;;17.00;68.00;;;;;;3575378;40;20029;-62
2021/05/22 10:12:09;;;;;;;4.35;0.90;;;16.90;64.40;;;;;;3571578;40;20399;-62
2021/05/22 10:14:43;;;;;;;4.43;1.02;;;16.80;63.00;;;;;;3571201;40;20021;-61
2021/05/22 10:17:12;;;;;;;6.63;1.10;;;16.60;63.40;;;;;;3577262;40;20040;-62
2021/05/22 10:19:38;;;;;;;3.67;1.10;;;16.60;65.30;;;;;;3575280;40;20032;-61
2021/05/22 10:22:06;;;;;;;4.32;1.00;;;16.70;64.70;;;;;;3572192;40;20106;-63
2021/05/22 10:24:33;;;;;;;3.88;0.85;;;16.90;67.00;;;;;;3572208;40;20032;-62
2021/05/22 10:26:59;;;;;;;4.13;1.00;;;17.20;65.30;;;;;;3572755;40;20309;-62
2021/05/22 10:29:26;;;;;;;2.60;0.70;;;17.50;59.60;;;;;;3575708;40;20041;-62
2021/05/22 10:31:53;;;;;;;4.00;0.75;;;18.10;60.30;;;;;;3575006;40;20075;-62
2021/05/22 10:34:21;;;;;;;6.13;0.88;;;18.40;55.90;;;;;;3574269;40;20280;-62
2021/05/22 10:36:54;;;;;;;6.90;0.98;;;18.60;54.80;;;;;;3578047;40;20056;-63
2021/05/22 10:39:38;;;;;;;2.33;0.88;;;18.70;53.80;;;;;;3574520;40;20408;-62
2021/05/22 10:42:04;;;;;;;3.70;1.02;;;18.90;48.80;;;;;;3574239;40;20453;-62
2021/05/22 10:44:33;;;;;;;4.30;0.93;;;19.00;47.90;;;;;;3575105;40;20028;-62
2021/05/22 10:47:14;;;;;;;2.10;0.60;;;19.00;48.30;;;;;;3571691;40;20052;-63
2021/05/22 10:49:46;;;;;;;2.40;0.75;;;18.60;44.70;;;;;;3581157;40;20658;-62
2021/05/22 10:52:15;;;;;;;4.55;0.70;;;18.30;46.20;;;;;;3580048;40;20112;-61
2021/05/22 10:54:59;;;;;;;5.40;0.90;;;17.90;49.40;;;;;;3574620;40;20061;-61
2021/05/22 10:57:26;;;;;;;1.73;0.55;;;17.60;52.20;;;;;;3575772;40;20322;-62
2021/05/22 11:00:19;;;;;;;7.05;1.40;;;17.40;54.90;;;;;;3574851;40;20122;-61
2021/05/22 11:03:07;;;;;;;6.30;1.00;;;17.20;56.30;;;;;;3572524;40;20036;-61
2021/05/22 11:05:36;;;;;;;4.43;0.85;;;17.10;56.20;;;;;;3579321;40;20047;-62
2021/05/22 11:08:07;;;;;;;5.78;1.10;;;17.20;55.20;;;;;;3576804;40;20029;-62
2021/05/22 11:10:44;;;;;;;2.20;1.10;;;17.20;56.90;;;;;;3576732;40;20051;-62
2021/05/22 11:13:23;;;;;;;1.75;1.10;;;17.40;56.20;;;;;;3574942;40;20118;-62
2021/05/22 11:15:56;;;;;;;1.25;0.95;;;17.70;57.20;;;;;;3580226;40;20033;-62
2021/05/22 11:18:26;;;;;;;3.33;0.88;;;17.90;56.00;;;;;;3578779;40;20704;-62
2021/05/22 11:21:10;;;;;;;2.45;0.63;;;18.20;51.90;;;;;;3574661;40;20029;-62
2021/05/22 11:23:57;;;;;;;4.60;1.13;;;18.30;53.50;;;;;;3576000;40;20025;-62
2021/05/22 11:26:53;;;;;;;8.93;0.73;;;18.30;49.30;;;;;;3571773;40;20114;-61
2021/05/22 11:29:21;;;;;;;6.90;0.80;;;18.00;47.70;;;;;;3575349;40;20133;-61
2021/05/22 11:31:48;;;;;;;5.25;0.60;;;17.70;48.30;;;;;;3572894;40;20088;-64
2021/05/22 11:34:20;;;;;;;2.58;0.85;;;17.50;50.20;;;;;;3575664;40;20033;-61
2021/05/22 11:37:07;;;;;;;5.47;0.63;;;17.50;48.80;;;;;;3574899;40;20040;-62
2021/05/22 11:39:43;;;;;;;3.38;0.60;;;17.50;49.70;;;;;;3578454;40;20117;-59
2021/05/22 11:42:32;;;;;;;3.53;0.60;;;17.50;48.90;;;;;;3573660;40;20434;-62
2021/05/22 11:45:00;;;;;;;4.50;0.70;;;17.70;48.30;;;;;;3578340;40;20036;-67
2021/05/22 11:47:33;;;;;;;2.60;0.63;;;17.80;48.40;;;;;;3577428;40;20076;-63
2021/05/22 11:50:00;;;;;;;1.98;0.70;;;17.90;47.50;;;;;;3575250;40;20386;-62
2021/05/22 11:52:34;;;;;;;4.47;0.75;;;17.90;48.20;;;;;;3573323;40;20739;-62
2021/05/22 11:55:15;;;;;;;4.05;0.73;;;17.90;48.00;;;;;;3575365;40;20041;-63
2021/05/22 11:57:40;;;;;;;2.63;1.00;;;17.70;47.40;;;;;;3576311;40;20122;-61
2021/05/22 12:00:07;;;;;;;3.97;0.80;;;17.50;48.80;;;;;;3576121;40;20870;-62
2021/05/22 12:02:39;;;;;;;1.75;0.80;;;17.20;47.40;;;;;;3574003;40;20084;-62
2021/05/22 12:05:07;;;;;;;2.75;0.85;;;17.00;49.60;;;;;;3572365;40;20126;-62
2021/05/22 12:07:52;;;;;;;3.55;0.98;;;17.00;49.20;;;;;;3578067;40;20037;-61
2021/05/22 12:10:19;;;;;;;0.90;0.40;;;16.90;51.90;;;;;;3573866;40;20041;-62
2021/05/22 12:12:45;;;;;;;4.43;0.88;;;16.90;52.00;;;;;;3575505;40;20083;-61
2021/05/22 12:15:22;;;;;;;2.28;0.68;;;17.00;51.80;;;;;;3571963;40;20029;-65
2021/05/22 12:17:48;;;;;;;2.75;0.70;;;17.10;52.10;;;;;;3575534;40;20048;-62
2021/05/22 12:20:14;;;;;;;0.60;0.50;;;17.30;51.20;;;;;;3576360;40;20302;-62
2021/05/22 12:22:40;;;;;;;4.72;1.13;;;17.20;52.40;;;;;;3576784;40;20020;-67
2021/05/22 12:25:07;;;;;;;3.78;0.70;;;17.10;53.70;;;;;;3575027;40;20037;-64
2021/05/22 12:27:35;;;;;;;3.42;0.90;;;17.10;54.90;;;;;;3574589;40;20040;-62
2021/05/22 12:30:00;;;;;;;5.15;1.30;;;17.30;54.70;;;;;;3575636;40;20617;-60
2021/05/22 12:32:27;;;;;;;5.07;1.58;;;17.40;53.50;;;;;;3580717;40;20050;-62
2021/05/22 12:34:58;;;;;;;9.00;2.55;;;17.50;54.70;;;;;;3577637;40;20032;-62
2021/05/22 12:37:24;;;;;;;3.05;1.13;;;17.80;53.90;;;;;;3575505;40;20531;-61
2021/05/22 12:39:56;;;;;;;4.22;0.82;;;18.10;53.00;;;;;;3573538;40;20723;-62
2021/05/22 12:42:27;;;;;;;2.10;0.77;;;18.40;51.10;;;;;;3577099;40;20051;-62
2021/05/22 12:44:58;;;;;;;2.55;0.70;;;18.40;51.00;;;;;;3580725;40;20047;-63
2021/05/22 12:47:36;;;;;;;5.25;0.70;;;18.40;50.10;;;;;;3574886;40;20037;-62
2021/05/22 12:50:06;;;;;;;2.80;0.80;;;18.40;51.90;;;;;;3576891;40;20384;-62
2021/05/22 12:52:47;;;;;;;4.90;0.55;;;18.60;50.50;;;;;;3574227;40;20123;-62